createdAt,value
2018-09-18T00:00:22.715Z,53.89
2018-09-18T00:02:50.442Z,53.70
2018-09-18T00:05:18.887Z,54.19
2018-09-18T00:07:46.637Z,53.15
2018-09-18T00:10:14.361Z,53.39
2018-09-18T00:12:42.047Z,54.11
2018-09-18T00:15:09.814Z,53.98
2018-09-18T00:17:37.546Z,54.78
2018-09-18T00:20:05.383Z,54.89
2018-09-18T00:22:33.087Z,54.79
2018-09-18T00:25:01.209Z,54.38
2018-09-18T00:27:28.915Z,54.64
2018-09-18T00:29:56.681Z,54.45
2018-09-18T00:32:24.425Z,54.35
2018-09-18T00:34:52.239Z,54.29
2018-09-18T00:37:20.023Z,54.63
2018-09-18T00:39:47.743Z,54.39
2018-09-18T00:42:15.518Z,54.61
2018-09-18T00:44:43.272Z,54.97
2018-09-18T00:47:11.002Z,54.63
2018-09-18T00:49:38.710Z,55.29
2018-09-18T00:52:06.435Z,55.50
2018-09-18T00:54:34.111Z,55.55
2018-09-18T00:57:01.955Z,55.51
2018-09-18T00:59:29.719Z,54.75
2018-09-18T01:01:57.434Z,55.55
2018-09-18T01:04:25.373Z,55.65
2018-09-18T01:06:53.043Z,55.91
2018-09-18T01:09:20.762Z,55.42
2018-09-18T01:11:48.508Z,55.93
2018-09-18T01:14:16.580Z,55.38
2018-09-18T01:16:44.352Z,56.09
2018-09-18T01:19:12.026Z,55.42
2018-09-18T01:21:39.834Z,55.88
2018-09-18T01:24:07.631Z,55.69
2018-09-18T01:26:35.311Z,55.13
2018-09-18T01:29:06.923Z,55.93
2018-09-18T01:31:34.731Z,55.04
2018-09-18T01:34:02.675Z,55.59
2018-09-18T01:36:30.590Z,55.73
2018-09-18T01:38:58.343Z,55.34
2018-09-18T01:41:26.078Z,55.39
2018-09-18T01:43:53.952Z,55.98
2018-09-18T01:46:21.627Z,55.90
2018-09-18T01:48:49.343Z,55.88
2018-09-18T01:51:17.324Z,55.46
2018-09-18T01:53:45.228Z,55.88
2018-09-18T01:56:12.936Z,56.36
2018-09-18T01:58:40.619Z,56.25
2018-09-18T02:01:08.492Z,56.06
2018-09-18T02:03:36.331Z,56.35
2018-09-18T02:06:04.004Z,55.83
2018-09-18T02:08:31.842Z,56.46
2018-09-18T02:10:59.537Z,56.69
2018-09-18T02:13:27.339Z,56.09
2018-09-18T02:15:55.037Z,56.94
2018-09-18T02:18:22.750Z,57.32
2018-09-18T02:20:50.493Z,57.33
2018-09-18T02:23:18.289Z,57.29
2018-09-18T02:25:46.035Z,57.29
2018-09-18T02:28:13.771Z,57.74
2018-09-18T02:30:41.522Z,58.13
2018-09-18T02:33:12.680Z,57.59
2018-09-18T02:35:40.466Z,57.67
2018-09-18T02:38:08.115Z,57.82
2018-09-18T02:40:35.936Z,58.33
2018-09-18T02:43:03.657Z,58.01
2018-09-18T02:45:31.574Z,58.22
2018-09-18T02:47:59.262Z,58.65
2018-09-18T02:50:26.938Z,58.15
2018-09-18T02:52:54.594Z,58.47
2018-09-18T02:55:22.392Z,57.67
2018-09-18T02:57:50.087Z,58.16
2018-09-18T03:00:17.771Z,57.66
2018-09-18T03:02:45.776Z,58.04
2018-09-18T03:05:13.933Z,58.07
2018-09-18T03:07:41.595Z,58.42
2018-09-18T03:10:09.268Z,57.79
2018-09-18T03:15:41.152Z,57.87
2018-09-18T03:18:08.880Z,58.06
2018-09-18T03:20:36.635Z,57.65
2018-09-18T03:23:04.438Z,58.12
2018-09-18T03:25:32.237Z,58.63
2018-09-18T03:28:00.106Z,58.08
2018-09-18T03:30:27.954Z,58.33
2018-09-18T03:32:55.760Z,58.91
2018-09-18T03:35:23.713Z,58.81
2018-09-18T03:37:51.440Z,58.85
2018-09-18T03:40:19.320Z,58.96
2018-09-18T03:42:47.413Z,59.04
2018-09-18T03:45:15.194Z,58.98
2018-09-18T03:47:42.879Z,58.79
2018-09-18T03:50:10.620Z,58.47
2018-09-18T03:52:38.680Z,59.03
2018-09-18T03:55:06.461Z,58.65
2018-09-18T03:57:34.212Z,59.27
2018-09-18T04:00:02.164Z,59.85
2018-09-18T04:02:29.955Z,59.08
2018-09-18T04:04:57.634Z,58.88
2018-09-18T04:07:25.675Z,59.64
2018-09-18T04:09:53.378Z,59.61
2018-09-18T04:12:21.062Z,59.32
2018-09-18T04:14:48.781Z,59.18
2018-09-18T04:17:16.497Z,59.28
2018-09-18T04:19:44.295Z,59.75
2018-09-18T04:22:12.063Z,59.61
2018-09-18T04:24:40.115Z,59.96
2018-09-18T04:27:07.808Z,59.75
2018-09-18T04:29:36.204Z,58.96
2018-09-18T04:32:04.012Z,59.32
2018-09-18T04:34:31.766Z,60.11
2018-09-18T04:36:59.502Z,59.74
2018-09-18T04:39:27.207Z,60.25
2018-09-18T04:41:54.971Z,59.91
2018-09-18T04:44:22.781Z,59.64
2018-09-18T04:46:51.044Z,60.76
2018-09-18T04:49:18.762Z,59.89
2018-09-18T04:51:46.440Z,60.75
2018-09-18T04:54:15.173Z,60.31
2018-09-18T04:56:43.060Z,60.52
2018-09-18T04:59:10.834Z,60.58
2018-09-18T05:01:38.564Z,60.69
2018-09-18T05:04:06.268Z,61.15
2018-09-18T05:06:34.068Z,61.13
2018-09-18T05:09:02.126Z,61.03
2018-09-18T05:11:30.642Z,62.00
2018-09-18T05:13:58.342Z,61.37
2018-09-18T05:16:26.018Z,60.97
2018-09-18T05:18:53.723Z,60.87
2018-09-18T05:21:21.450Z,61.55
2018-09-18T05:23:49.154Z,61.06
2018-09-18T05:26:16.824Z,61.22
2018-09-18T05:28:44.528Z,61.52
2018-09-18T05:31:12.277Z,60.89
2018-09-18T05:33:40.028Z,61.79
2018-09-18T05:36:07.688Z,61.44
2018-09-18T05:38:35.415Z,61.22
2018-09-18T05:41:03.130Z,62.10
2018-09-18T05:43:31.044Z,61.58
2018-09-18T05:45:58.754Z,61.76
2018-09-18T05:48:29.013Z,62.54
2018-09-18T05:50:56.774Z,62.21
2018-09-18T05:53:24.436Z,61.78
2018-09-18T05:55:52.114Z,62.10
2018-09-18T05:58:19.840Z,61.72
2018-09-18T06:00:47.599Z,61.77
2018-09-18T06:03:15.348Z,61.19
2018-09-18T06:05:43.115Z,61.31
2018-09-18T06:08:10.840Z,61.99
2018-09-18T06:10:38.551Z,61.83
2018-09-18T06:13:06.304Z,61.31
2018-09-18T06:15:34.016Z,61.23
2018-09-18T06:18:01.693Z,61.38
2018-09-18T06:20:29.380Z,61.11
2018-09-18T06:22:57.152Z,60.25
2018-09-18T06:25:24.853Z,61.38
2018-09-18T06:27:52.575Z,60.25
2018-09-18T06:30:20.375Z,59.96
2018-09-18T06:32:48.128Z,59.90
2018-09-18T06:35:15.970Z,60.70
2018-09-18T06:37:43.623Z,60.66
2018-09-18T06:40:11.485Z,60.62
2018-09-18T06:42:39.324Z,60.21
2018-09-18T06:45:07.028Z,59.86
2018-09-18T06:47:34.787Z,59.71
2018-09-18T06:50:02.655Z,60.01
2018-09-18T06:52:30.378Z,59.44
2018-09-18T06:54:58.132Z,59.77
2018-09-18T06:57:25.823Z,58.69
2018-09-18T06:59:53.492Z,59.05
2018-09-18T07:02:21.273Z,58.95
2018-09-18T07:04:48.958Z,58.69
2018-09-18T07:07:16.647Z,58.37
2018-09-18T07:09:44.723Z,58.30
2018-09-18T07:12:12.378Z,57.42
2018-09-18T07:14:40.093Z,57.17
2018-09-18T07:17:07.811Z,56.80
2018-09-18T07:19:35.556Z,58.09
2018-09-18T07:22:03.280Z,57.76
2018-09-18T07:24:30.984Z,57.24
2018-09-18T07:26:58.671Z,56.08
2018-09-18T07:29:26.416Z,56.33
2018-09-18T07:31:54.363Z,55.42
2018-09-18T07:34:22.043Z,55.29
2018-09-18T07:36:49.840Z,54.40
2018-09-18T07:39:17.538Z,53.71
2018-09-18T07:41:45.259Z,54.38
2018-09-18T07:44:12.973Z,53.36
2018-09-18T07:46:40.679Z,53.77
2018-09-18T07:49:08.351Z,52.78
2018-09-18T07:51:36.088Z,52.44
2018-09-18T07:54:04.247Z,51.84
2018-09-18T07:56:31.992Z,51.48
2018-09-18T07:59:00.458Z,51.27
2018-09-18T08:01:28.858Z,50.46
2018-09-18T08:03:56.524Z,50.60
2018-09-18T08:06:24.460Z,49.31
2018-09-18T08:08:52.196Z,48.91
2018-09-18T08:11:19.915Z,48.66
2018-09-18T08:13:47.594Z,48.60
2018-09-18T08:16:15.291Z,48.43
2018-09-18T08:18:43.105Z,49.07
2018-09-18T08:21:10.871Z,47.99
2018-09-18T08:23:38.560Z,47.02
2018-09-18T08:26:07.249Z,46.48
2018-09-18T08:28:34.922Z,45.09
2018-09-18T08:31:02.676Z,45.78
2018-09-18T08:33:30.676Z,44.94
2018-09-18T08:35:58.510Z,45.29
2018-09-18T08:38:26.171Z,45.51
2018-09-18T08:40:53.870Z,44.18
2018-09-18T08:43:21.532Z,43.37
2018-09-18T08:45:49.257Z,43.41
2018-09-18T08:48:16.943Z,43.01
2018-09-18T08:50:44.659Z,42.25
2018-09-18T08:53:12.387Z,41.84
2018-09-18T08:55:40.173Z,41.65
2018-09-18T08:58:08.225Z,41.23
2018-09-18T09:00:36.015Z,41.43
2018-09-18T09:03:03.795Z,41.30
2018-09-18T09:05:31.977Z,41.66
2018-09-18T09:07:59.736Z,41.03
2018-09-18T09:10:27.498Z,40.23
2018-09-18T09:12:55.607Z,40.59
2018-09-18T09:15:23.309Z,39.71
2018-09-18T09:17:51.062Z,39.94
2018-09-18T09:20:18.771Z,39.71
2018-09-18T09:22:46.510Z,40.52
2018-09-18T09:25:14.236Z,38.33
2018-09-18T09:27:42.665Z,38.93
2018-09-18T09:30:10.397Z,38.21
2018-09-18T09:32:38.154Z,37.98
2018-09-18T09:35:05.897Z,38.13
2018-09-18T09:37:33.850Z,38.97
2018-09-18T09:40:01.612Z,37.27
2018-09-18T09:42:29.390Z,36.92
2018-09-18T09:44:57.154Z,37.28
2018-09-18T09:47:24.815Z,37.04
2018-09-18T09:49:52.774Z,36.38
2018-09-18T09:52:20.730Z,35.52
2018-09-18T09:54:49.413Z,35.49
2018-09-18T09:57:17.099Z,36.08
2018-09-18T09:59:44.858Z,35.67
2018-09-18T10:02:15.733Z,34.81
2018-09-18T10:04:43.544Z,35.91
2018-09-18T10:07:11.355Z,34.71
2018-09-18T10:09:39.037Z,34.57
2018-09-18T10:12:06.835Z,35.91
2018-09-18T10:14:34.512Z,37.09
2018-09-18T10:17:02.195Z,37.11
2018-09-18T10:19:29.955Z,37.12
2018-09-18T10:21:57.639Z,37.19
2018-09-18T10:24:25.321Z,37.60
2018-09-18T10:26:53.069Z,37.37
2018-09-18T10:29:24.630Z,37.84
2018-09-18T10:31:52.557Z,37.22
2018-09-18T10:34:20.232Z,37.96
2018-09-18T10:36:47.987Z,37.43
2018-09-18T10:39:15.703Z,38.63
2018-09-18T10:41:43.420Z,37.89
2018-09-18T10:44:11.225Z,36.49
2018-09-18T10:46:38.891Z,35.30
2018-09-18T10:49:06.700Z,33.94
2018-09-18T10:51:34.461Z,34.12
2018-09-18T10:54:02.188Z,34.23
2018-09-18T10:56:29.909Z,34.27
2018-09-18T10:58:57.672Z,33.13
2018-09-18T11:01:25.464Z,33.56
2018-09-18T11:03:53.157Z,33.64
2018-09-18T11:06:20.959Z,33.93
2018-09-18T11:08:48.618Z,33.74
2018-09-18T11:11:16.389Z,33.38
2018-09-18T11:13:44.074Z,33.45
2018-09-18T11:16:11.934Z,33.24
2018-09-18T11:18:39.441Z,33.50
2018-09-18T11:21:07.323Z,33.46
2018-09-18T11:23:34.986Z,32.15
2018-09-18T11:26:02.779Z,32.78
2018-09-18T11:28:30.491Z,32.93
2018-09-18T11:30:58.191Z,32.89
2018-09-18T11:33:25.950Z,32.04
2018-09-18T11:35:53.611Z,31.45
2018-09-18T11:38:21.567Z,31.84
2018-09-18T11:40:49.342Z,32.06
2018-09-18T11:43:16.990Z,32.19
2018-09-18T11:45:44.921Z,31.72
2018-09-18T11:48:12.684Z,31.36
2018-09-18T11:50:44.234Z,30.38
2018-09-18T11:53:12.084Z,31.05
2018-09-18T11:55:39.884Z,31.60
2018-09-18T11:58:07.603Z,31.53
2018-09-18T12:00:35.385Z,32.44
2018-09-18T12:03:03.149Z,31.09
2018-09-18T12:05:30.859Z,31.75
2018-09-18T12:07:58.552Z,32.19
2018-09-18T12:10:26.278Z,32.00
2018-09-18T12:12:53.980Z,32.39
2018-09-18T12:15:21.659Z,31.64
2018-09-18T12:17:49.312Z,32.95
2018-09-18T12:20:17.048Z,32.18
2018-09-18T12:22:44.745Z,31.45
2018-09-18T12:25:12.427Z,31.57
2018-09-18T12:27:40.172Z,30.84
2018-09-18T12:30:08.080Z,31.22
2018-09-18T12:32:35.995Z,29.90
2018-09-18T12:35:03.752Z,29.89
2018-09-18T12:37:31.660Z,32.19
2018-09-18T12:39:59.368Z,31.22
2018-09-18T12:42:27.088Z,31.06
2018-09-18T12:44:54.785Z,31.34
2018-09-18T12:47:22.467Z,30.50
2018-09-18T12:49:50.413Z,30.08
2018-09-18T12:52:21.316Z,30.11
2018-09-18T12:54:49.314Z,29.88
2018-09-18T12:57:17.222Z,30.18
2018-09-18T12:59:44.934Z,30.51
2018-09-18T13:02:12.729Z,30.58
2018-09-18T13:04:40.395Z,30.37
2018-09-18T13:07:08.145Z,31.03
2018-09-18T13:09:35.808Z,31.87
2018-09-18T13:12:03.527Z,30.40
2018-09-18T13:14:31.190Z,29.96
2018-09-18T13:16:58.876Z,30.73
2018-09-18T13:19:26.602Z,30.63
2018-09-18T13:21:54.498Z,30.71
2018-09-18T13:24:22.178Z,30.71
2018-09-18T13:26:49.958Z,30.47
2018-09-18T13:29:17.882Z,30.70
2018-09-18T13:31:45.612Z,30.06
2018-09-18T13:34:13.385Z,31.14
2018-09-18T13:36:41.096Z,30.51
2018-09-18T13:39:09.037Z,31.12
2018-09-18T13:41:36.785Z,31.32
2018-09-18T13:44:04.473Z,31.39
2018-09-18T13:46:32.238Z,32.05
2018-09-18T13:48:59.934Z,32.14
2018-09-18T13:51:27.646Z,32.04
2018-09-18T13:53:55.544Z,31.32
2018-09-18T13:56:23.394Z,31.63
2018-09-18T13:58:51.138Z,32.93
2018-09-18T14:01:19.091Z,32.51
2018-09-18T14:03:46.900Z,32.61
2018-09-18T14:06:14.713Z,32.62
2018-09-18T14:08:42.451Z,32.15
2018-09-18T14:11:10.196Z,33.01
2018-09-18T14:14:31.788Z,33.48
2018-09-18T14:17:17.561Z,33.49
2018-09-18T14:19:45.320Z,33.09
2018-09-18T14:22:13.130Z,32.29
2018-09-18T14:24:41.020Z,32.31
2018-09-18T14:27:08.754Z,32.68
2018-09-18T14:29:36.766Z,31.99
2018-09-18T14:32:04.639Z,32.26
2018-09-18T14:34:32.264Z,32.94
2018-09-18T14:37:00.155Z,32.82
2018-09-18T14:39:27.961Z,32.51
2018-09-18T14:41:55.759Z,33.14
2018-09-18T14:44:23.467Z,32.84
2018-09-18T14:46:51.276Z,33.26
2018-09-18T14:49:19.020Z,33.72
2018-09-18T14:51:46.788Z,34.00
2018-09-18T14:54:14.510Z,34.52
2018-09-18T14:56:42.296Z,34.95
2018-09-18T14:59:10.087Z,34.22
2018-09-18T15:01:38.210Z,34.24
2018-09-18T15:04:06.031Z,34.48
2018-09-18T15:06:33.817Z,35.21
2018-09-18T15:09:01.610Z,35.71
2018-09-18T15:11:29.452Z,35.45
2018-09-18T15:16:59.807Z,35.42
2018-09-18T15:19:27.614Z,36.30
2018-09-18T15:21:55.389Z,36.12
2018-09-18T15:24:23.095Z,36.37
2018-09-18T15:26:50.758Z,36.24
2018-09-18T15:29:18.448Z,37.00
2018-09-18T15:31:46.194Z,37.10
2018-09-18T15:34:14.044Z,38.83
2018-09-18T15:36:42.038Z,39.69
2018-09-18T15:39:09.763Z,40.32
2018-09-18T15:41:38.045Z,41.01
2018-09-18T15:44:05.779Z,40.96
2018-09-18T15:46:33.884Z,41.09
2018-09-18T15:49:01.668Z,41.19
2018-09-18T15:51:29.407Z,40.76
2018-09-18T15:53:57.418Z,41.79
2018-09-18T15:56:25.239Z,41.32
2018-09-18T15:58:53.015Z,41.44
2018-09-18T16:01:20.770Z,41.46
2018-09-18T16:03:48.532Z,42.61
2018-09-18T16:06:16.228Z,42.50
2018-09-18T16:08:43.907Z,42.26
2018-09-18T16:11:11.583Z,42.55
2018-09-18T16:13:39.405Z,43.71
2018-09-18T16:16:07.539Z,43.45
2018-09-18T16:18:35.307Z,42.92
2018-09-18T16:21:03.028Z,44.74
2018-09-18T16:23:30.774Z,43.46
2018-09-18T16:25:58.651Z,43.39
2018-09-18T16:28:26.488Z,44.30
2018-09-18T16:30:54.640Z,44.01
2018-09-18T16:33:22.607Z,44.16
2018-09-18T16:35:53.950Z,44.74
2018-09-18T16:38:22.932Z,44.19
2018-09-18T16:40:50.835Z,45.23
2018-09-18T16:43:18.550Z,44.93
2018-09-18T16:45:46.847Z,44.65
2018-09-18T16:48:15.218Z,45.32
2018-09-18T16:50:43.032Z,46.04
2018-09-18T16:53:10.901Z,45.85
2018-09-18T16:55:38.632Z,45.89
2018-09-18T16:58:06.400Z,46.22
2018-09-18T17:00:34.124Z,47.57
2018-09-18T17:03:02.349Z,47.57
2018-09-18T17:05:30.177Z,47.74
2018-09-18T17:07:57.919Z,48.48
2018-09-18T17:10:25.759Z,49.53
2018-09-18T17:12:53.509Z,48.99
2018-09-18T17:15:23.579Z,48.46
2018-09-18T17:17:52.475Z,49.69
2018-09-18T17:20:20.144Z,48.83
2018-09-18T17:22:48.189Z,48.81
2018-09-18T17:25:16.015Z,48.46
2018-09-18T17:27:43.816Z,49.29
2018-09-18T17:30:11.588Z,48.92
2018-09-18T17:32:39.379Z,48.83
2018-09-18T17:35:07.392Z,50.08
2018-09-18T17:37:35.368Z,49.98
2018-09-18T17:40:07.477Z,49.34
2018-09-18T17:42:35.183Z,49.81
2018-09-18T17:45:05.184Z,49.51
2018-09-18T17:47:32.960Z,51.25
2018-09-18T17:50:00.842Z,51.32
2018-09-18T17:52:28.506Z,50.69
2018-09-18T17:54:56.300Z,51.28
2018-09-18T17:57:24.128Z,51.36
2018-09-18T17:59:51.930Z,51.58
2018-09-18T18:02:19.679Z,51.74
2018-09-18T18:04:47.343Z,52.26
2018-09-18T18:07:15.176Z,52.56
2018-09-18T18:09:43.080Z,51.87
2018-09-18T18:12:10.826Z,51.53
2018-09-18T18:14:38.585Z,51.91
2018-09-18T18:17:06.335Z,51.25
2018-09-18T18:19:34.161Z,50.94
2018-09-18T18:22:02.422Z,50.79
2018-09-18T18:24:30.112Z,51.19
2018-09-18T18:26:57.960Z,52.05
2018-09-18T18:29:25.787Z,51.55
2018-09-18T18:31:53.523Z,51.48
2018-09-18T18:34:21.729Z,51.89
2018-09-18T18:36:49.451Z,52.64
2018-09-18T18:39:17.155Z,52.06
2018-09-18T18:41:45.066Z,52.29
2018-09-18T18:44:12.772Z,51.85
2018-09-18T18:46:40.603Z,51.98
2018-09-18T18:49:08.287Z,52.33
2018-09-18T18:51:36.176Z,52.54
2018-09-18T18:54:04.000Z,52.87
2018-09-18T18:56:31.881Z,53.25
2018-09-18T18:58:59.787Z,52.06
2018-09-18T19:01:28.089Z,52.23
2018-09-18T19:03:55.900Z,52.15
2018-09-18T19:06:23.866Z,51.03
2018-09-18T19:08:51.513Z,51.36
2018-09-18T19:11:19.567Z,50.79
2018-09-18T19:13:47.619Z,51.21
2018-09-18T19:16:15.366Z,51.15
2018-09-18T19:18:43.372Z,50.93
2018-09-18T19:21:11.157Z,50.91
2018-09-18T19:23:39.901Z,49.94
2018-09-18T19:26:07.692Z,49.88
2018-09-18T19:28:35.377Z,49.73
2018-09-18T19:31:03.108Z,49.38
2018-09-18T19:33:30.957Z,49.50
2018-09-18T19:35:58.747Z,49.47
2018-09-18T19:38:26.577Z,49.14
2018-09-18T19:40:54.241Z,48.15
2018-09-18T19:43:22.175Z,48.14
2018-09-18T19:45:49.832Z,48.34
2018-09-18T19:48:17.743Z,48.31
2018-09-18T19:50:45.539Z,47.05
2018-09-18T19:53:13.588Z,47.58
2018-09-18T19:55:41.374Z,48.21
2018-09-18T19:58:09.175Z,49.51
2018-09-18T20:00:36.888Z,49.18
2018-09-18T20:03:08.327Z,49.33
2018-09-18T20:05:36.012Z,49.00
2018-09-18T20:08:03.803Z,49.39
2018-09-18T20:10:31.519Z,49.69
2018-09-18T20:12:59.357Z,49.87
2018-09-18T20:15:27.435Z,50.55
2018-09-18T20:17:55.114Z,50.95
2018-09-18T20:20:22.803Z,50.79
2018-09-18T20:22:50.634Z,51.50
2018-09-18T20:25:18.584Z,52.30
2018-09-18T20:27:46.270Z,51.70
2018-09-18T20:30:14.363Z,52.36
2018-09-18T20:32:42.040Z,51.94
2018-09-18T20:35:09.834Z,53.20
2018-09-18T20:37:37.743Z,53.34
2018-09-18T20:40:05.924Z,53.08
2018-09-18T20:42:33.688Z,52.79
2018-09-18T20:45:01.782Z,51.65
2018-09-18T20:47:29.623Z,51.68
2018-09-18T20:49:57.516Z,52.84
2018-09-18T20:52:25.196Z,53.12
2018-09-18T20:54:52.986Z,52.27
2018-09-18T20:57:20.681Z,53.05
2018-09-18T20:59:48.460Z,52.91
2018-09-18T21:02:16.342Z,53.08
2018-09-18T21:04:44.031Z,53.03
2018-09-18T21:07:11.848Z,53.86
2018-09-18T21:09:39.864Z,54.02
2018-09-18T21:12:07.561Z,53.95
2018-09-18T21:14:35.248Z,54.50
2018-09-18T21:17:02.942Z,54.92
2018-09-18T21:19:30.676Z,55.01
2018-09-18T21:22:04.415Z,55.61
2018-09-18T21:24:32.143Z,56.08
2018-09-18T21:27:00.257Z,56.59
2018-09-18T21:29:27.975Z,57.13
2018-09-18T21:31:55.660Z,57.13
2018-09-18T21:34:23.319Z,57.96
2018-09-18T21:36:51.025Z,58.74
2018-09-18T21:39:18.707Z,58.80
2018-09-18T21:41:46.393Z,59.48
2018-09-18T21:44:14.145Z,59.51
2018-09-18T21:46:41.887Z,60.59
2018-09-18T21:49:09.551Z,60.96
2018-09-18T21:51:37.220Z,61.29
2018-09-18T21:54:04.965Z,61.53
2018-09-18T21:56:32.769Z,60.64
2018-09-18T21:59:00.690Z,61.19
2018-09-18T22:01:28.427Z,61.83
2018-09-18T22:03:56.163Z,61.30
2018-09-18T22:06:23.827Z,61.55
2018-09-18T22:08:51.577Z,62.67
2018-09-18T22:11:20.534Z,62.73
2018-09-18T22:13:48.288Z,62.38
2018-09-18T22:16:15.978Z,63.36
2018-09-18T22:18:43.728Z,63.61
2018-09-18T22:21:11.425Z,63.68
2018-09-18T22:23:39.261Z,63.48
2018-09-18T22:26:07.363Z,63.58
2018-09-18T22:28:35.047Z,64.18
2018-09-18T22:31:02.834Z,64.10
2018-09-18T22:33:30.588Z,64.18
2018-09-18T22:35:58.307Z,63.26
2018-09-18T22:38:25.996Z,62.88
2018-09-18T22:40:53.699Z,63.08
2018-09-18T22:43:21.749Z,63.65
2018-09-18T22:45:49.442Z,63.63
2018-09-18T22:48:17.272Z,63.92
2018-09-18T22:50:44.997Z,63.42
2018-09-18T22:53:12.788Z,63.70
2018-09-18T22:55:47.428Z,63.46
2018-09-18T22:58:15.186Z,64.25
2018-09-18T23:00:42.906Z,63.88
2018-09-18T23:03:13.819Z,65.32
2018-09-18T23:05:41.860Z,65.30
2018-09-18T23:08:09.546Z,64.82
2018-09-18T23:10:37.215Z,65.10
2018-09-18T23:13:04.938Z,65.88
2018-09-18T23:15:32.620Z,65.34
2018-09-18T23:18:00.273Z,65.14
2018-09-18T23:20:27.959Z,65.95
2018-09-18T23:22:55.631Z,66.11
2018-09-18T23:25:23.411Z,66.62
2018-09-18T23:27:51.205Z,67.19
2018-09-18T23:30:18.924Z,66.87
2018-09-18T23:32:46.594Z,67.54
2018-09-18T23:35:14.455Z,67.10
2018-09-18T23:37:42.576Z,67.58
2018-09-18T23:40:10.291Z,67.97
2018-09-18T23:42:38.102Z,68.22
2018-09-18T23:45:05.994Z,68.34
2018-09-18T23:47:33.820Z,67.88
2018-09-18T23:50:01.643Z,67.93
2018-09-18T23:52:29.331Z,67.85
2018-09-18T23:54:57.005Z,68.03
2018-09-18T23:57:25.160Z,68.94
2018-09-18T23:59:52.954Z,68.59
